Flight Track Log - Related Links

Times and Time Zones

All times are in EDT time to prevent confusion due to time zone crossing. See the N201LP flight status page for this flight to view local times or setup timezone preferences in your user account.

Time Position Orientation Groundspeed Altitude Reporting Facility
EDT Latitude Longitude Course Direction KTS MPH feet Rate Location/Type
Mon 04:29:04 PM 38.4033 -81.5114 46° Northeast 110 127 2,800  Level Indianapolis Center
Mon 04:30:06 PM 38.4169 -81.4725 66° East 115 132 3,600 726 Climbing Indianapolis Center
Mon 04:31:08 PM 38.4342 -81.4358 59° Northeast 118 136 4,300 629 Climbing Indianapolis Center
Mon 04:32:10 PM 38.4533 -81.3992 56° Northeast 121 139 4,900 532 Climbing Indianapolis Center
Mon 04:33:00 PM 38.4856 -81.2969 46° Northeast  Level FlightAware Approximate
Mon 04:33:12 PM 38.4725 -81.3617 57° Northeast 125 144 5,400  Level Indianapolis Center
Mon 04:34:00 PM 38.5150 -81.2578 46° Northeast  Level FlightAware Approximate
Mon 04:34:13 PM 38.4986 -81.3164 54° Northeast 131 151 6,100  Level Indianapolis Center
Mon 04:35:15 PM 38.5181 -81.2764 58° Northeast 132 152 6,600 387 Climbing Indianapolis Center
Mon 04:36:17 PM 38.5394 -81.2364 56° Northeast 136 157 6,900 145 Climbing Indianapolis Center
Mon 04:37:19 PM 38.5619 -81.1917 57° Northeast 149 171 6,900 48 Level Indianapolis Center
Mon 04:38:21 PM 38.5858 -81.1456 56° Northeast 155 178 7,000  Climbing Indianapolis Center
Mon 04:39:23 PM 38.6014 -81.0925 69° East 161 185 6,900 -48 Descending Indianapolis Center
Mon 04:40:25 PM 38.6181 -81.0278 72° East 160 184 6,900  Level Indianapolis Center
Mon 04:41:27 PM 38.6317 -80.9725 72° East 162 186 6,900  Level Indianapolis Center
Mon 04:42:29 PM 38.6453 -80.9189 72° East 160 184 6,900  Level Indianapolis Center
Mon 04:43:31 PM 38.6622 -80.8656 68° East 162 186 6,900 98 Level Indianapolis Center
Mon 04:44:32 PM 38.6783 -80.8139 68° East 158 182 7,100 49 Climbing Indianapolis Center
Mon 04:45:34 PM 38.6942 -80.7628 68° East 155 178 7,000 -48 Descending Indianapolis Center
Mon 04:46:36 PM 38.7106 -80.7094 68° East 158 182 7,000  Level Indianapolis Center
Mon 04:47:38 PM 38.7306 -80.6433 69° East 164 189 7,000  Level Indianapolis Center
Mon 04:48:40 PM 38.7497 -80.5917 65° Northeast 162 186 7,000  Level Indianapolis Center
Mon 04:49:42 PM 38.7661 -80.5397 68° East 159 183 7,000  Level Indianapolis Center
Mon 04:50:44 PM 38.7836 -80.4856 67° East 162 186 7,000  Level Indianapolis Center
Mon 04:51:46 PM 38.7997 -80.4311 69° East 164 189 7,000  Level Indianapolis Center
Mon 04:52:48 PM 38.8172 -80.3775 67° East 164 189 7,000  Level Indianapolis Center
Mon 04:53:49 PM 38.8328 -80.3236 70° East 163 188 7,000 -49 Level Indianapolis Center
Mon 04:54:51 PM 38.8531 -80.2597 68° East 162 186 6,900 -48 Descending Indianapolis Center
Mon 04:55:53 PM 38.8694 -80.2061 69° East 162 186 6,900 Level Indianapolis Center
Mon 04:57:00 PM 38.8839 -80.1481 72° East  Level FlightAware Approximate
Mon 05:04:00 PM 38.9850 -79.7881 70° East  Level FlightAware Approximate
Mon 05:05:00 PM 38.9997 -79.7368 70° East  Level FlightAware Approximate
Mon 05:06:00 PM 39.0143 -79.6855 70° East  Level FlightAware Approximate
Mon 05:06:07 PM 39.0464 -79.6703 70° East 170 196 7,000  Level Washington Center
Mon 05:07:00 PM 39.0290 -79.6341 70° East  Level FlightAware Approximate
Mon 05:07:07 PM 39.0628 -79.6150 69° East 170 196 7,000  Level Washington Center
Mon 05:08:00 PM 39.0436 -79.5827 70° East  Level FlightAware Approximate
Mon 05:08:08 PM 39.0772 -79.5625 70° East 165 190 7,000  Level Washington Center
Mon 05:09:00 PM 39.0582 -79.5314 70° East  Level FlightAware Approximate
Mon 05:09:06 PM 39.0894 -79.5094 73° East 160 184 7,000  Level Washington Center
Mon 05:10:00 PM 39.0727 -79.4799 70° East  Level FlightAware Approximate
Mon 05:10:06 PM 39.1017 -79.4514 75° East 160 184 7,000  Level Washington Center
Mon 05:11:00 PM 39.0872 -79.4285 70° East  Level FlightAware Approximate
Mon 05:11:07 PM 39.1136 -79.4039 72° East 160 184 7,100  Level Washington Center
Mon 05:12:08 PM 39.1278 -79.3483 72° East 160 184 7,000 -50 Descending Washington Center
Mon 05:13:08 PM 39.1422 -79.2903 72° East 160 184 7,000  Level Washington Center
Mon 05:14:06 PM 39.1483 -79.2264 83° East 160 184 7,000 -51 Level Washington Center
Mon 05:15:06 PM 39.1625 -79.1736 71° East 160 184 6,900 50 Descending Washington Center
Mon 05:16:06 PM 39.1786 -79.1181 69° East 160 184 7,100 50 Climbing Washington Center
Mon 05:17:07 PM 39.1967 -79.0653 66° East 160 184 7,000 -98 Descending Washington Center
Mon 05:18:08 PM 39.2131 -79.0097 69° East 165 190 6,900  Descending Washington Center
Mon 05:19:08 PM 39.2292 -78.9544 69° East 165 190 7,000 102 Climbing Washington Center
Mon 05:20:06 PM 39.2369 -78.8983 80° East 165 190 7,100 -50 Climbing Washington Center
Mon 05:21:07 PM 39.2467 -78.8453 77° East 160 184 6,900 -149 Descending Washington Center
Mon 05:22:07 PM 39.2525 -78.7892 82° East 160 184 6,800 50 Descending Washington Center
Mon 05:23:07 PM 39.2600 -78.7333 80° East 160 184 7,000 99 Climbing Washington Center
Mon 05:24:08 PM 39.2658 -78.6772 82° East 160 184 7,000  Level Washington Center
Mon 05:25:06 PM 39.2736 -78.6186 80° East 160 184 7,000 -50 Level Washington Center
Mon 05:26:07 PM 39.2833 -78.5628 77° East 160 184 6,900 -50 Descending Washington Center
Mon 05:27:07 PM 39.2908 -78.5039 81° East 160 184 6,900  Level Washington Center
Mon 05:28:07 PM 39.2986 -78.4453 80° East 160 184 6,900  Level Washington Center
Mon 05:29:08 PM 39.3042 -78.3892 83° East 160 184 6,900  Level Washington Center
Mon 05:30:06 PM 39.3097 -78.3275 83° East 160 184 6,900  Level Washington Center
Mon 05:31:07 PM 39.3172 -78.2717 80° East 160 184 6,900  Level Washington Center
Mon 05:32:07 PM 39.3267 -78.2131 78° East 160 184 6,900  Level Washington Center
Mon 05:33:08 PM 39.3364 -78.1597 77° East 160 184 6,900 -50 Level Washington Center
Mon 05:34:08 PM 39.3500 -78.1036 73° East 160 184 6,800 51 Descending Washington Center
Mon 05:35:06 PM 39.3594 -78.0450 78° East 160 184 7,000 102 Climbing Washington Center
Mon 05:36:06 PM 39.3689 -77.9889 78° East 160 184 7,000  Level Washington Center
Mon 05:37:07 PM 39.3764 -77.9275 81° East 160 184 7,000  Level Washington Center
Mon 05:39:10 PM 39.4000 -77.8000 76° East 168 193 7,000 -67 Level Potomac TRACON
Mon 05:40:05 PM 39.4000 -77.7500 90° East 168 193 6,800 -313 Descending Potomac TRACON
Mon 05:41:05 PM 39.4000 -77.6833 90° East 172 198 6,400 -450 Descending Potomac TRACON
Mon 05:42:05 PM 39.4000 -77.6333 90° East 176 203 5,900 -450 Descending Potomac TRACON
Mon 05:43:05 PM 39.4167 -77.5667 72° East 176 203 5,500 -450 Descending Potomac TRACON
Mon 05:44:05 PM 39.4167 -77.5000 90° East 172 198 5,000 -286 Descending Potomac TRACON
Mon 05:45:11 PM 39.4333 -77.4333 72° East 161 185 4,900 -47 Descending Potomac TRACON
Mon 05:46:12 PM 39.4333 -77.3667 90° East 164 189 4,900 50 Level Potomac TRACON
Mon 05:47:12 PM 39.4500 -77.3167 67° East 168 193 5,000  Climbing Potomac TRACON
Mon 05:48:12 PM 39.4500 -77.2500 90° East 166 191 4,900  Descending Potomac TRACON
Mon 05:49:12 PM 39.4667 -77.2000 67° East 166 191 5,000  Climbing Potomac TRACON
Mon 05:50:12 PM 39.4667 -77.1333 90° East 167 192 4,900 -250 Descending Potomac TRACON
Mon 05:51:12 PM 39.4833 -77.0833 67° East 172 198 4,500 -450 Descending Potomac TRACON
Mon 05:52:12 PM 39.4833 -77.0167 90° East 172 198 4,000 -298 Descending Potomac TRACON
Mon 05:53:13 PM 39.5000 -76.9667 67° East 167 192 3,900 -99 Descending Potomac TRACON
Mon 05:54:13 PM 39.5000 -76.9000 90° East 156 180 3,800 -100 Descending Potomac TRACON
Mon 05:55:13 PM 39.5000 -76.8500 90° East 161 185 3,700 -300 Descending Potomac TRACON
Mon 05:56:13 PM 39.4833 -76.7833 108° East 167 192 3,200 -350 Descending Potomac TRACON
Mon 05:57:13 PM 39.4667 -76.7333 113° Southeast 164 189 3,000 -200 Descending Potomac TRACON
Mon 05:58:13 PM 39.4500 -76.6833 113° Southeast 147 169 2,800 -150 Descending Potomac TRACON
Mon 05:59:13 PM 39.4333 -76.6333 113° Southeast 142 163 2,700 -198 Descending Potomac TRACON
Mon 06:00:14 PM 39.4167 -76.5833 113° Southeast 155 178 2,400 -397 Descending Potomac TRACON
Mon 06:01:14 PM 39.4000 -76.5500 123° Southeast 152 175 1,900 -400 Descending Potomac TRACON
Mon 06:02:14 PM 39.3833 -76.5000 113° Southeast 135 155 1,600 -350 Descending Potomac TRACON
Mon 06:03:14 PM 39.3667 -76.4667 123° Southeast 112 129 1,200 -500 Descending Potomac TRACON
Mon 06:04:14 PM 39.3500 -76.4500 142° Southeast 86 99 600 -600 Descending Potomac TRACON
Mon 06:06:00 PM 39.3257 -76.4138 113° Southeast  Level Estimated
Mon 06:13:00 PM 39.3257 -76.4138 113° Southeast  Level Estimated
Mon 06:14:00 PM 39.3257 -76.4138 113° Southeast  Level Estimated
Mon 06:15:00 PM 39.3257 -76.4138 113° Southeast  Level Estimated
Mon 06:16:00 PM 39.3257 -76.4138 113° Southeast  Level Estimated

Login

Don't have an account? Register now (free) for customized features, flight alerts, and more!